Flight Track Log - Related Links

Times and Time Zones

All times are in EDT time to prevent confusion due to time zone crossing. See the FLG3346 flight status page for this flight to view local times or setup timezone preferences in your user account.

Time Position Orientation Groundspeed Altitude Reporting Facility
EDT Latitude Longitude Course Direction KTS MPH feet Rate Location/Type
Tue 02:16:43 PM 41.5533 -93.6692 306° West 170 196 1,400  Level Minneapolis Center
Tue 02:17:56 PM 41.5894 -93.7350 306° West 193 222 4,600 2,563 Climbing Minneapolis Center
Tue 02:19:55 PM 41.6783 -93.8439 318° Northwest 251 289 9,600 2,221 Climbing Minneapolis Center
Tue 02:20:57 PM 41.7489 -93.8556 353° North 280 322 11,300 1,694 Climbing Minneapolis Center
Tue 02:21:59 PM 41.8347 -93.8406 North 305 351 13,100 1,805 Climbing Minneapolis Center
Tue 02:23:00 PM 41.9244 -93.8214 North 320 368 15,000 2,049 Climbing Minneapolis Center
Tue 02:24:02 PM 42.0178 -93.8053 North 331 381 17,300 2,129 Climbing Minneapolis Center
Tue 02:25:04 PM 42.1258 -93.7836 North 333 383 19,400 1,194 Climbing Minneapolis Center
Tue 02:27:08 PM 42.2969 -93.7489 North 316 364 21,000 290 Climbing Minneapolis Center
Tue 02:28:10 PM 42.3864 -93.7311 North 320 368 20,300 -806 Descending Minneapolis Center
Tue 02:30:14 PM 42.5903 -93.6900 North 338 389 18,500 -968 Descending Minneapolis Center
Tue 02:31:16 PM 42.6839 -93.6722 North 340 391 17,300 -726 Descending Minneapolis Center
Tue 02:32:18 PM 42.7850 -93.6514 North 362 417 17,000 -146 Descending Minneapolis Center
Tue 02:33:19 PM 42.8858 -93.6314 North 366 421 17,000  Level Minneapolis Center
Tue 02:35:23 PM 43.0897 -93.5911 North 371 427 17,000  Level Minneapolis Center
Tue 02:36:25 PM 43.2122 -93.5664 North 371 427 17,000  Level Minneapolis Center
Tue 02:37:27 PM 43.3131 -93.5483 North 371 427 17,000  Level Minneapolis Center
Tue 02:38:29 PM 43.4158 -93.5400 North 371 427 17,000  Level Minneapolis Center
Tue 02:39:30 PM 43.5172 -93.5306 North 371 427 17,000  Level Minneapolis Center
Tue 02:40:32 PM 43.6158 -93.5222 North 371 427 17,000 -48 Level Minneapolis Center
Tue 02:41:34 PM 43.7383 -93.5092 North 370 426 16,900 -823 Descending Minneapolis Center
Tue 02:42:36 PM 43.8375 -93.4981 North 365 420 15,300 -1,500 Descending Minneapolis Center
Tue 02:43:38 PM 43.9314 -93.4906 North 345 397 13,800 -1,387 Descending Minneapolis Center
Tue 02:45:42 PM 44.1167 -93.4667 North 311 358 11,000 -913 Descending Minneapolis TRACON
Tue 02:46:42 PM 44.1833 -93.4667 360° North 283 326 11,000  Level Minneapolis TRACON
Tue 02:47:46 PM 44.2736 -93.4328 15° North 271 312 11,000 -564 Level Minneapolis Center
Tue 02:49:43 PM 44.4000 -93.3333 28° Northeast 274 315 9,300 -1,051 Descending Minneapolis TRACON
Tue 02:50:43 PM 44.4667 -93.3000 20° North 263 303 7,900 -1,150 Descending Minneapolis TRACON
Tue 02:51:43 PM 44.5333 -93.2500 28° Northeast 258 297 7,000 -1,200 Descending Minneapolis TRACON
Tue 02:52:43 PM 44.6167 -93.2167 16° North 250 288 5,500 -1,450 Descending Minneapolis TRACON
Tue 02:53:43 PM 44.6667 -93.2000 13° North 228 262 4,100 -900 Descending Minneapolis TRACON
Tue 02:54:43 PM 44.7333 -93.2000 360° North 186 214 3,700 -650 Descending Minneapolis TRACON
Tue 02:55:43 PM 44.7667 -93.2167 340° North 163 188 2,800 -850 Descending Minneapolis TRACON
Tue 02:56:43 PM 44.8167 -93.2167 360° North 134 154 2,000 -761 Descending Minneapolis TRACON
Tue 02:58:05 PM 44.8569 -93.2344 343° North 128 147 1,000 -732 Descending Minneapolis Center
Tue 03:00:00 PM 44.8667 -93.2167 35° Northeast  Level FlightAware Approximate

Login

Don't have an account? Register now (free) for customized features, flight alerts, and more!